createdAt,value
2023-04-03T00:00:50.517Z,71.76
2023-04-03T00:03:20.010Z,71.19
2023-04-03T00:05:47.914Z,71.57
2023-04-03T00:08:16.189Z,71.10
2023-04-03T00:10:44.288Z,71.98
2023-04-03T00:13:12.642Z,71.64
2023-04-03T00:15:41.221Z,71.97
2023-04-03T00:18:09.298Z,72.40
2023-04-03T00:20:38.991Z,72.56
2023-04-03T00:23:07.115Z,72.44
2023-04-03T00:25:35.254Z,72.42
2023-04-03T00:28:03.227Z,72.00
2023-04-03T00:30:31.002Z,72.21
2023-04-03T00:32:59.351Z,72.37
2023-04-03T00:35:27.215Z,71.99
2023-04-03T00:37:57.396Z,71.86
2023-04-03T00:40:27.630Z,71.49
2023-04-03T00:42:59.134Z,70.75
2023-04-03T00:45:31.837Z,70.27
2023-04-03T00:48:01.656Z,69.87
2023-04-03T00:50:32.332Z,70.06
2023-04-03T00:53:02.323Z,70.69
2023-04-03T00:55:31.115Z,70.84
2023-04-03T00:57:59.269Z,70.25
2023-04-03T01:00:27.341Z,70.62
2023-04-03T01:02:56.045Z,70.39
2023-04-03T01:05:24.504Z,69.83
2023-04-03T01:07:54.795Z,69.45
2023-04-03T01:10:24.274Z,69.17
2023-04-03T01:12:52.484Z,69.29
2023-04-03T01:15:22.349Z,69.84
2023-04-03T01:17:51.602Z,69.73
2023-04-03T01:20:58.035Z,69.28
2023-04-03T01:23:46.622Z,69.90
2023-04-03T01:26:16.791Z,70.08
2023-04-03T01:28:45.198Z,69.83
2023-04-03T01:31:20.621Z,68.99
2023-04-03T01:33:51.179Z,68.29
2023-04-03T01:36:22.869Z,67.79
2023-04-03T01:38:51.011Z,68.22
2023-04-03T01:41:19.243Z,68.09
2023-04-03T01:43:48.782Z,68.24
2023-04-03T01:46:16.664Z,67.57
2023-04-03T01:48:45.058Z,67.18
2023-04-03T01:51:14.243Z,66.61
2023-04-03T01:53:42.268Z,66.00
2023-04-03T01:56:10.465Z,65.74
2023-04-03T01:58:38.285Z,65.91
2023-04-03T02:01:06.956Z,66.04
2023-04-03T02:03:35.243Z,66.69
2023-04-03T02:06:03.230Z,66.48
2023-04-03T02:08:32.367Z,66.10
2023-04-03T02:11:00.273Z,66.24
2023-04-03T02:13:28.092Z,65.66
2023-04-03T02:15:55.845Z,65.65
2023-04-03T02:18:23.903Z,66.50
2023-04-03T02:20:51.772Z,65.77
2023-04-03T02:23:19.555Z,65.61
2023-04-03T02:25:50.078Z,65.73
2023-04-03T02:28:18.047Z,66.09
2023-04-03T02:30:46.065Z,65.43
2023-04-03T02:33:13.900Z,65.70
2023-04-03T02:35:42.030Z,66.15
2023-04-03T02:38:09.826Z,65.84
2023-04-03T02:40:37.885Z,66.34
2023-04-03T02:43:07.139Z,65.51
2023-04-03T02:45:35.901Z,65.02
2023-04-03T02:48:04.187Z,65.15
2023-04-03T02:50:32.146Z,65.03
2023-04-03T02:52:59.910Z,64.79
2023-04-03T02:55:27.725Z,64.25
2023-04-03T02:57:57.316Z,64.66
2023-04-03T03:00:26.751Z,65.10
2023-04-03T03:02:55.060Z,64.57
2023-04-03T03:05:23.742Z,64.45
2023-04-03T03:07:51.926Z,65.72
2023-04-03T03:10:19.869Z,65.75
2023-04-03T03:12:48.057Z,65.16
2023-04-03T03:15:16.608Z,64.85
2023-04-03T03:17:46.456Z,65.29
2023-04-03T03:20:16.333Z,64.64
2023-04-03T03:22:44.544Z,64.70
2023-04-03T03:25:12.771Z,64.78
2023-04-03T03:27:40.724Z,65.48
2023-04-03T03:30:09.767Z,64.85
2023-04-03T03:32:37.780Z,64.34
2023-04-03T03:35:07.448Z,64.35
2023-04-03T03:37:35.451Z,64.48
2023-04-03T03:40:03.563Z,64.24
2023-04-03T03:42:32.772Z,64.17
2023-04-03T03:45:00.873Z,63.97
2023-04-03T03:47:28.712Z,64.17
2023-04-03T03:49:57.913Z,63.99
2023-04-03T03:52:27.387Z,64.21
2023-04-03T03:54:56.033Z,63.88
2023-04-03T03:57:24.176Z,64.14
2023-04-03T03:59:53.731Z,64.07
2023-04-03T04:02:22.132Z,64.07
2023-04-03T04:04:50.931Z,64.54
2023-04-03T04:07:19.076Z,64.39
2023-04-03T04:09:48.309Z,64.90
2023-04-03T04:12:16.878Z,65.97
2023-04-03T04:14:47.541Z,65.67
2023-04-03T04:17:16.730Z,65.57
2023-04-03T04:19:44.522Z,65.84
2023-04-03T04:22:12.503Z,65.67
2023-04-03T04:24:40.341Z,65.46
2023-04-03T04:27:11.972Z,65.70
2023-04-03T04:29:39.756Z,66.49
2023-04-03T04:32:10.044Z,66.43
2023-04-03T04:34:38.047Z,66.29
2023-04-03T04:37:06.109Z,66.53
2023-04-03T04:39:34.105Z,67.27
2023-04-03T04:42:02.407Z,66.64
2023-04-03T04:44:33.895Z,66.16
2023-04-03T04:47:02.021Z,66.62
2023-04-03T04:49:29.976Z,66.68
2023-04-03T04:51:58.076Z,66.32
2023-04-03T04:54:30.299Z,66.57
2023-04-03T04:56:59.205Z,66.11
2023-04-03T04:59:27.998Z,66.35
2023-04-03T05:01:59.864Z,67.18
2023-04-03T05:04:28.671Z,67.04
2023-04-03T05:07:03.041Z,66.92
2023-04-03T05:09:32.956Z,67.08
2023-04-03T05:12:00.768Z,66.69
2023-04-03T05:14:32.379Z,66.23
2023-04-03T05:17:05.817Z,65.92
2023-04-03T05:19:36.654Z,66.18
2023-04-03T05:22:05.866Z,65.75
2023-04-03T05:24:33.958Z,66.33
2023-04-03T05:27:02.192Z,66.94
2023-04-03T05:29:31.220Z,66.22
2023-04-03T05:32:00.846Z,66.38
2023-04-03T05:34:30.328Z,66.36
2023-04-03T05:36:58.714Z,65.95
2023-04-03T05:39:29.375Z,65.37
2023-04-03T05:41:57.323Z,65.66
2023-04-03T05:44:25.502Z,64.56
2023-04-03T05:46:55.145Z,65.51
2023-04-03T05:49:22.941Z,64.53
2023-04-03T05:51:52.932Z,64.05
2023-04-03T05:54:27.028Z,64.08
2023-04-03T05:57:00.469Z,63.50
2023-04-03T05:59:29.256Z,62.88
2023-04-03T06:01:59.412Z,62.71
2023-04-03T06:04:27.353Z,62.38
2023-04-03T06:06:59.255Z,62.89
2023-04-03T06:09:29.952Z,62.38
2023-04-03T06:11:59.549Z,61.62
2023-04-03T06:14:28.668Z,61.30
2023-04-03T06:16:56.652Z,61.73
2023-04-03T06:19:24.695Z,61.44
2023-04-03T06:21:58.169Z,61.10
2023-04-03T06:24:26.439Z,60.62
2023-04-03T06:26:55.063Z,59.80
2023-04-03T06:29:23.143Z,59.36
2023-04-03T06:31:51.690Z,60.13
2023-04-03T06:34:20.132Z,59.69
2023-04-03T06:36:48.012Z,59.35
2023-04-03T06:39:19.117Z,59.62
2023-04-03T06:41:47.008Z,58.03
2023-04-03T06:44:16.703Z,58.39
2023-04-03T06:46:46.376Z,58.15
2023-04-03T06:49:14.276Z,57.54
2023-04-03T06:51:42.035Z,57.96
2023-04-03T06:54:10.145Z,57.31
2023-04-03T06:56:39.328Z,57.02
2023-04-03T06:59:07.204Z,57.15
2023-04-03T07:01:35.068Z,56.09
2023-04-03T07:04:03.318Z,56.08
2023-04-03T07:06:33.263Z,55.61
2023-04-03T07:09:01.428Z,55.26
2023-04-03T07:11:29.572Z,55.21
2023-04-03T07:13:58.710Z,54.90
2023-04-03T07:16:26.615Z,55.30
2023-04-03T07:18:54.471Z,54.99
2023-04-03T07:21:22.253Z,55.25
2023-04-03T07:26:23.217Z,54.13
2023-04-03T07:28:52.038Z,54.42
2023-04-03T07:31:21.582Z,54.61
2023-04-03T07:33:49.536Z,55.64
2023-04-03T07:36:20.163Z,53.32
2023-04-03T07:38:48.089Z,52.69
2023-04-03T07:41:18.555Z,52.68
2023-04-03T07:43:47.497Z,52.30
2023-04-03T07:46:16.075Z,52.11
2023-04-03T07:48:46.154Z,51.41
2023-04-03T07:51:14.644Z,51.55
2023-04-03T07:53:42.657Z,51.48
2023-04-03T07:56:11.478Z,50.35
2023-04-03T07:58:39.447Z,51.09
2023-04-03T08:01:07.323Z,49.88
2023-04-03T08:03:35.251Z,50.89
2023-04-03T08:06:11.779Z,50.34
2023-04-03T08:08:43.315Z,49.68
2023-04-03T08:11:12.589Z,50.65
2023-04-03T08:13:42.457Z,50.45
2023-04-03T08:16:12.734Z,50.30
2023-04-03T08:18:41.502Z,50.96
2023-04-03T08:21:11.860Z,49.80
2023-04-03T08:23:40.086Z,49.76
2023-04-03T08:26:10.109Z,49.55
2023-04-03T08:28:38.132Z,50.79
2023-04-03T08:31:08.017Z,49.39
2023-04-03T08:33:38.123Z,47.43
2023-04-03T08:36:07.393Z,47.48
2023-04-03T08:38:38.297Z,47.58
2023-04-03T08:41:16.373Z,48.13
2023-04-03T08:43:58.605Z,46.96
2023-04-03T08:46:33.179Z,46.72
2023-04-03T08:49:02.107Z,47.58
2023-04-03T08:51:32.243Z,45.82
2023-04-03T08:54:04.296Z,46.11
2023-04-03T08:56:33.247Z,44.79
2023-04-03T08:59:06.174Z,43.92
2023-04-03T09:01:38.659Z,42.16
2023-04-03T09:04:14.766Z,42.60
2023-04-03T09:06:49.734Z,43.27
2023-04-03T09:09:33.282Z,43.26
2023-04-03T09:12:10.479Z,43.18
2023-04-03T09:14:41.768Z,42.46
2023-04-03T09:17:17.783Z,42.06
2023-04-03T09:19:53.877Z,43.06
2023-04-03T09:22:25.764Z,42.65
2023-04-03T09:25:01.928Z,42.83
2023-04-03T09:27:30.565Z,42.24
2023-04-03T09:29:59.834Z,41.03
2023-04-03T09:32:30.827Z,40.97
2023-04-03T09:35:13.091Z,41.80
2023-04-03T09:37:49.363Z,40.93
2023-04-03T09:40:37.433Z,40.96
2023-04-03T09:43:22.631Z,41.32
2023-04-03T09:45:51.813Z,40.28
2023-04-03T09:48:21.910Z,39.51
2023-04-03T09:51:04.032Z,39.61
2023-04-03T09:53:36.408Z,39.01
2023-04-03T09:56:21.774Z,40.49
2023-04-03T09:58:51.806Z,38.63
2023-04-03T10:01:27.428Z,39.55
2023-04-03T10:04:08.465Z,39.44
2023-04-03T10:06:38.139Z,38.36
2023-04-03T10:09:09.589Z,37.33
2023-04-03T10:11:38.815Z,38.64
2023-04-03T10:14:07.910Z,37.52
2023-04-03T10:16:41.706Z,36.42
2023-04-03T10:19:38.747Z,37.37
2023-04-03T10:22:17.239Z,37.54
2023-04-03T10:24:53.819Z,36.76
2023-04-03T10:27:37.844Z,35.32
2023-04-03T10:30:19.598Z,35.90
2023-04-03T10:32:59.932Z,34.56
2023-04-03T10:35:39.199Z,34.58
2023-04-03T10:38:13.427Z,33.02
2023-04-03T10:40:50.734Z,31.57
2023-04-03T10:43:29.312Z,33.44
2023-04-03T10:46:03.848Z,34.51
2023-04-03T10:48:42.307Z,33.67
2023-04-03T10:51:22.855Z,32.33
2023-04-03T10:53:57.949Z,29.99
2023-04-03T10:56:34.056Z,28.27
2023-04-03T10:59:16.273Z,28.38
2023-04-03T11:01:47.407Z,26.60
2023-04-03T11:04:17.191Z,26.08
2023-04-03T11:06:50.382Z,24.87
2023-04-03T11:09:25.264Z,25.27
2023-04-03T11:11:55.263Z,24.58
2023-04-03T11:14:29.554Z,23.72
2023-04-03T11:17:22.508Z,24.52
2023-04-03T11:19:59.008Z,24.26
2023-04-03T11:22:31.215Z,22.89
2023-04-03T11:25:05.443Z,22.08
2023-04-03T11:27:42.316Z,21.45
2023-04-03T11:30:20.571Z,22.16
2023-04-03T11:33:02.893Z,23.45
2023-04-03T11:35:32.226Z,21.67
2023-04-03T11:38:03.292Z,21.27
2023-04-03T11:40:34.624Z,19.85
2023-04-03T11:43:09.079Z,20.89
2023-04-03T11:45:51.693Z,21.11
2023-04-03T11:48:59.644Z,21.08
2023-04-03T11:51:43.442Z,19.70
2023-04-03T11:54:49.554Z,19.76
2023-04-03T11:58:03.977Z,19.66
2023-04-03T12:01:03.501Z,19.80
2023-04-03T12:03:59.223Z,19.83
2023-04-03T12:07:17.282Z,19.16
2023-04-03T12:10:03.485Z,19.94
2023-04-03T12:12:38.029Z,19.52
2023-04-03T12:15:21.826Z,19.68
2023-04-03T12:17:52.512Z,17.97
2023-04-03T12:20:54.418Z,18.53
2023-04-03T12:23:31.455Z,18.14
2023-04-03T12:26:22.615Z,17.01
2023-04-03T12:28:53.975Z,18.06
2023-04-03T12:31:28.070Z,16.91
2023-04-03T12:34:17.355Z,17.07
2023-04-03T12:37:00.126Z,17.81
2023-04-03T12:39:53.304Z,15.55
2023-04-03T12:42:34.647Z,14.57
2023-04-03T12:45:11.705Z,16.77
2023-04-03T12:47:41.093Z,15.69
2023-04-03T12:50:22.316Z,15.90
2023-04-03T12:52:54.842Z,15.83
2023-04-03T12:55:23.530Z,15.63
2023-04-03T12:57:51.712Z,17.35
2023-04-03T13:00:40.326Z,16.29
2023-04-03T13:03:21.653Z,16.07
2023-04-03T13:05:51.642Z,15.52
2023-04-03T13:08:21.175Z,15.97
2023-04-03T13:10:56.866Z,16.56
2023-04-03T13:13:25.333Z,16.04
2023-04-03T13:15:53.843Z,15.04
2023-04-03T13:18:31.375Z,15.76
2023-04-03T13:21:05.218Z,16.17
2023-04-03T13:23:36.107Z,14.09
2023-04-03T13:26:06.275Z,15.92
2023-04-03T13:28:35.721Z,15.80
2023-04-03T13:31:11.117Z,15.05
2023-04-03T13:33:39.837Z,16.30
2023-04-03T13:36:17.981Z,15.55
2023-04-03T13:38:46.151Z,14.72
2023-04-03T13:41:28.195Z,15.28
2023-04-03T13:44:03.413Z,14.11
2023-04-03T13:46:38.350Z,13.75
2023-04-03T13:49:20.246Z,15.92
2023-04-03T13:51:57.125Z,14.54
2023-04-03T13:54:35.506Z,14.21
2023-04-03T13:57:04.399Z,15.65
2023-04-03T13:59:34.072Z,13.80
2023-04-03T14:02:17.440Z,13.93
2023-04-03T14:04:54.213Z,14.18
2023-04-03T14:07:23.404Z,14.50
2023-04-03T14:09:51.477Z,14.42
2023-04-03T14:12:30.836Z,14.24
2023-04-03T14:14:59.718Z,13.29
2023-04-03T14:17:28.678Z,13.31
2023-04-03T14:19:58.395Z,13.84
2023-04-03T14:22:30.306Z,14.41
2023-04-03T14:24:58.501Z,14.30
2023-04-03T14:27:29.524Z,14.83
2023-04-03T14:29:58.888Z,14.64
2023-04-03T14:32:27.789Z,14.59
2023-04-03T14:34:56.252Z,14.96
2023-04-03T14:37:26.353Z,13.06
2023-04-03T14:39:57.542Z,14.29
2023-04-03T14:42:28.908Z,13.45
2023-04-03T14:44:56.921Z,12.97
2023-04-03T14:47:31.942Z,12.45
2023-04-03T14:50:01.283Z,13.55
2023-04-03T14:52:31.823Z,14.01
2023-04-03T14:55:01.384Z,16.77
2023-04-03T14:57:31.557Z,16.46
2023-04-03T15:00:03.618Z,17.28
2023-04-03T15:02:33.666Z,18.70
2023-04-03T15:05:05.082Z,19.19
2023-04-03T15:07:36.579Z,18.98
2023-04-03T15:10:17.670Z,19.24
2023-04-03T15:12:46.667Z,20.03
2023-04-03T15:15:15.127Z,21.05
2023-04-03T15:17:43.779Z,20.78
2023-04-03T15:20:16.722Z,21.16
2023-04-03T15:22:45.114Z,21.88
2023-04-03T15:25:14.888Z,22.89
2023-04-03T15:27:42.859Z,22.66
2023-04-03T15:30:16.218Z,22.95
2023-04-03T15:32:44.157Z,23.95
2023-04-03T15:35:12.230Z,24.98
2023-04-03T15:37:40.196Z,22.25
2023-04-03T15:40:09.305Z,23.10
2023-04-03T15:42:38.486Z,23.04
2023-04-03T15:45:07.309Z,24.66
2023-04-03T15:47:35.420Z,24.11
2023-04-03T15:50:03.382Z,23.95
2023-04-03T15:52:31.233Z,23.64
2023-04-03T15:54:59.108Z,24.09
2023-04-03T15:57:27.916Z,24.05
2023-04-03T15:59:57.473Z,25.27
2023-04-03T16:02:28.198Z,26.31
2023-04-03T16:04:56.653Z,25.27
2023-04-03T16:07:24.454Z,23.53
2023-04-03T16:09:52.190Z,25.33
2023-04-03T16:12:20.001Z,25.57
2023-04-03T16:14:47.834Z,26.22
2023-04-03T16:17:17.072Z,27.53
2023-04-03T16:19:44.998Z,26.28
2023-04-03T16:22:12.805Z,26.55
2023-04-03T16:24:40.908Z,27.17
2023-04-03T16:27:08.783Z,27.71
2023-04-03T16:29:37.199Z,27.75
2023-04-03T16:32:05.154Z,28.34
2023-04-03T16:34:34.329Z,27.47
2023-04-03T16:37:02.172Z,26.92
2023-04-03T16:39:29.914Z,27.89
2023-04-03T16:41:57.682Z,28.19
2023-04-03T16:44:25.474Z,28.08
2023-04-03T16:46:53.229Z,28.45
2023-04-03T16:49:21.236Z,29.05
2023-04-03T16:51:51.668Z,27.27
2023-04-03T16:54:19.502Z,28.42
2023-04-03T16:56:47.423Z,28.08
2023-04-03T16:59:15.251Z,27.79
2023-04-03T17:01:43.186Z,26.99
2023-04-03T17:04:11.192Z,26.28
2023-04-03T17:06:39.132Z,24.67
2023-04-03T17:09:08.643Z,25.40
2023-04-03T17:11:37.253Z,23.46
2023-04-03T17:14:05.509Z,23.11
2023-04-03T17:16:35.357Z,23.52
2023-04-03T17:19:04.114Z,22.12
2023-04-03T17:21:33.317Z,20.90
2023-04-03T17:24:03.984Z,21.25
2023-04-03T17:26:33.108Z,21.32
2023-04-03T17:29:00.856Z,22.25
2023-04-03T17:31:28.825Z,24.51
2023-04-03T17:33:56.656Z,24.96
2023-04-03T17:36:25.225Z,25.73
2023-04-03T17:38:53.328Z,26.65
2023-04-03T17:41:21.013Z,27.75
2023-04-03T17:43:50.388Z,28.41
2023-04-03T17:46:18.339Z,28.37
2023-04-03T17:48:46.546Z,29.49
2023-04-03T17:51:16.752Z,28.77
2023-04-03T17:53:44.873Z,29.90
2023-04-03T17:56:15.104Z,29.85
2023-04-03T17:58:43.986Z,30.63
2023-04-03T18:01:16.187Z,31.58
2023-04-03T18:03:45.115Z,32.31
2023-04-03T18:06:16.108Z,33.11
2023-04-03T18:08:46.998Z,33.01
2023-04-03T18:11:16.526Z,34.09
2023-04-03T18:13:46.598Z,33.77
2023-04-03T18:16:16.351Z,33.59
2023-04-03T18:18:44.601Z,34.07
2023-04-03T18:21:14.567Z,34.82
2023-04-03T18:23:45.781Z,35.37
2023-04-03T18:26:17.983Z,34.33
2023-04-03T18:28:52.012Z,35.07
2023-04-03T18:31:21.845Z,34.62
2023-04-03T18:33:49.981Z,35.12
2023-04-03T18:36:17.840Z,36.08
2023-04-03T18:38:45.631Z,35.31
2023-04-03T18:41:13.615Z,35.20
2023-04-03T18:43:41.508Z,36.07
2023-04-03T18:46:09.276Z,35.72
2023-04-03T18:48:41.152Z,37.38
2023-04-03T18:51:09.170Z,37.65
2023-04-03T18:53:37.053Z,36.70
2023-04-03T18:56:05.306Z,37.93
2023-04-03T18:58:33.242Z,37.40
2023-04-03T19:01:01.385Z,38.71
2023-04-03T19:03:31.865Z,37.99
2023-04-03T19:06:01.149Z,37.85
2023-04-03T19:08:29.296Z,37.50
2023-04-03T19:10:57.152Z,37.29
2023-04-03T19:13:24.953Z,39.23
2023-04-03T19:15:52.694Z,38.20
2023-04-03T19:18:20.459Z,39.24
2023-04-03T19:20:48.330Z,39.10
2023-04-03T19:23:17.880Z,39.84
2023-04-03T19:25:45.814Z,39.43
2023-04-03T19:28:14.811Z,40.33
2023-04-03T19:30:43.272Z,39.70
2023-04-03T19:33:12.308Z,39.94
2023-04-03T19:35:41.729Z,40.73
2023-04-03T19:38:09.728Z,40.31
2023-04-03T19:40:43.545Z,40.00
2023-04-03T19:43:12.056Z,39.97
2023-04-03T19:45:40.458Z,40.38
2023-04-03T19:48:09.047Z,41.12
2023-04-03T19:50:37.114Z,41.46
2023-04-03T19:53:04.946Z,41.94
2023-04-03T19:55:32.971Z,41.06
2023-04-03T19:58:03.092Z,41.03
2023-04-03T20:00:32.306Z,42.08
2023-04-03T20:03:00.286Z,42.11
2023-04-03T20:05:28.234Z,41.50
2023-04-03T20:07:56.097Z,41.82
2023-04-03T20:10:23.960Z,42.16
2023-04-03T20:12:52.392Z,41.81
2023-04-03T20:15:21.531Z,42.60
2023-04-03T20:17:49.697Z,42.79
2023-04-03T20:20:18.650Z,42.82
2023-04-03T20:22:46.502Z,43.11
2023-04-03T20:25:23.976Z,42.89
2023-04-03T20:28:03.531Z,42.33
2023-04-03T20:30:34.006Z,42.40
2023-04-03T20:33:01.863Z,42.94
2023-04-03T20:35:29.755Z,43.17
2023-04-03T20:37:57.736Z,41.88
2023-04-03T20:40:25.547Z,42.82
2023-04-03T20:42:53.962Z,43.26
2023-04-03T20:45:22.500Z,43.38
2023-04-03T20:47:53.854Z,43.68
2023-04-03T20:50:22.599Z,43.66
2023-04-03T20:52:50.597Z,42.42
2023-04-03T20:55:18.641Z,42.65
2023-04-03T20:57:54.650Z,43.21
2023-04-03T21:00:23.396Z,43.45
2023-04-03T21:02:52.665Z,43.73
2023-04-03T21:05:22.990Z,43.60
2023-04-03T21:08:28.466Z,43.75
2023-04-03T21:11:33.877Z,43.28
2023-04-03T21:14:39.369Z,44.36
2023-04-03T21:17:06.846Z,44.01
2023-04-03T21:19:43.109Z,44.01
2023-04-03T21:22:11.268Z,43.73
2023-04-03T21:24:39.219Z,43.14
2023-04-03T21:27:07.102Z,44.05
2023-04-03T21:29:34.978Z,43.58
2023-04-03T21:32:03.033Z,43.09
2023-04-03T21:34:31.929Z,43.78
2023-04-03T21:37:04.552Z,43.13
2023-04-03T21:39:33.007Z,42.91
2023-04-03T21:42:01.772Z,43.08
2023-04-03T21:44:29.715Z,43.93
2023-04-03T21:46:57.903Z,44.55
2023-04-03T21:49:27.117Z,43.38
2023-04-03T21:51:55.050Z,43.60
2023-04-03T21:54:25.753Z,43.33
2023-04-03T21:56:53.648Z,45.29
2023-04-03T21:59:21.873Z,45.20
2023-04-03T22:01:50.249Z,44.35
2023-04-03T22:04:18.046Z,45.44
2023-04-03T22:06:46.006Z,45.95
2023-04-03T22:09:14.049Z,46.57
2023-04-03T22:11:46.132Z,45.08
2023-04-03T22:14:14.126Z,44.58
2023-04-03T22:16:42.027Z,44.68
2023-04-03T22:19:10.096Z,44.88
2023-04-03T22:21:37.884Z,45.51
2023-04-03T22:24:06.317Z,46.70
2023-04-03T22:26:34.276Z,47.50
2023-04-03T22:29:04.099Z,48.27
2023-04-03T22:31:32.146Z,48.44
2023-04-03T22:34:04.044Z,48.12
2023-04-03T22:36:31.967Z,48.31
2023-04-03T22:39:00.257Z,48.72
2023-04-03T22:41:28.126Z,47.77
2023-04-03T22:43:58.345Z,48.72
2023-04-03T22:46:28.362Z,49.36
2023-04-03T22:48:56.486Z,50.61
2023-04-03T22:51:24.967Z,50.37
2023-04-03T22:53:53.009Z,50.84
2023-04-03T22:56:23.966Z,50.44
2023-04-03T22:58:53.544Z,51.03
2023-04-03T23:01:24.096Z,50.85
2023-04-03T23:03:53.357Z,50.98
2023-04-03T23:06:21.231Z,51.49
2023-04-03T23:08:49.023Z,51.27
2023-04-03T23:11:16.941Z,52.96
2023-04-03T23:13:44.718Z,53.95
2023-04-03T23:16:13.002Z,52.74
2023-04-03T23:18:43.281Z,53.08
2023-04-03T23:21:13.062Z,51.76
2023-04-03T23:23:41.205Z,52.42
2023-04-03T23:26:09.592Z,52.45
2023-04-03T23:28:37.655Z,52.02
2023-04-03T23:31:06.586Z,52.15
2023-04-03T23:33:34.921Z,51.85
2023-04-03T23:36:07.860Z,52.54
2023-04-03T23:38:37.604Z,53.00
2023-04-03T23:41:06.019Z,52.91
2023-04-03T23:43:33.859Z,53.73
2023-04-03T23:46:01.887Z,53.68
2023-04-03T23:48:29.930Z,53.78
2023-04-03T23:50:57.832Z,54.51
2023-04-03T23:53:25.629Z,53.77
2023-04-03T23:55:54.805Z,53.60
2023-04-03T23:58:22.640Z,54.29
